Time;durP1;ratioP1;P1;durP2;ratioP2;P2;SDS_P1;SDS_P2;PMS_P1;PMS_P2;Temp;Humidity;BMP_temperature;BMP_pressure;BME280_temperature;BME280_humidity;BME280_pressure;Samples;Min_cycle;Max_cycle;Signal;HPM_P1;HPM_P2
2023/10/20 00:01:21;;;;;;;20.08;17.85;;;;;;;6.97;100.00;98862.59;5006176;28;20103;-71
2023/10/20 00:03:48;;;;;;;18.95;16.75;;;;;;;6.97;100.00;98861.78;5004613;28;20124;-71
2023/10/20 00:06:16;;;;;;;19.33;17.23;;;;;;;6.99;100.00;98865.13;4988173;28;20054;-73
2023/10/20 00:08:44;;;;;;;21.33;17.23;;;;;;;6.97;100.00;98864.38;5018790;28;20053;-71
2023/10/20 00:11:12;;;;;;;18.58;16.50;;;;;;;6.98;100.00;98869.53;5005748;28;20061;-73
2023/10/20 00:13:40;;;;;;;18.75;16.70;;;;;;;6.98;100.00;98853.84;4988509;28;20069;-71
2023/10/20 00:16:07;;;;;;;17.70;15.73;;;;;;;6.98;100.00;98864.28;4989441;28;21864;-73
2023/10/20 00:18:35;;;;;;;20.75;16.45;;;;;;;7.00;100.00;98857.16;5000479;28;20065;-72
2023/10/20 00:21:04;;;;;;;17.10;14.88;;;;;;;6.99;100.00;98857.28;5021140;28;20053;-74
2023/10/20 00:23:32;;;;;;;16.77;15.05;;;;;;;6.97;100.00;98865.22;5002824;28;20061;-73
2023/10/20 00:25:59;;;;;;;17.17;15.13;;;;;;;6.99;100.00;98868.56;5003245;28;20069;-74
2023/10/20 00:28:27;;;;;;;16.20;14.50;;;;;;;6.97;100.00;98865.22;5005157;28;20058;-73
2023/10/20 00:30:54;;;;;;;16.58;14.25;;;;;;;6.95;100.00;98856.66;4988152;28;20072;-72
2023/10/20 00:33:21;;;;;;;15.48;13.70;;;;;;;6.98;100.00;98855.59;5004651;28;20532;-73
2023/10/20 00:35:48;;;;;;;18.08;15.85;;;;;;;6.94;100.00;98852.38;4987719;28;20046;-75
2023/10/20 00:38:17;;;;;;;15.50;13.90;;;;;;;6.93;100.00;98860.31;4986876;28;20104;-76
2023/10/20 00:40:46;;;;;;;15.15;13.43;;;;;;;6.95;100.00;98851.44;5022945;28;20107;-75
2023/10/20 00:43:13;;;;;;;16.48;14.52;;;;;;;6.95;100.00;98850.59;5006893;28;20385;-76
2023/10/20 00:45:43;;;;;;;15.60;14.00;;;;;;;6.97;100.00;98846.91;4973266;28;20096;-75
2023/10/20 00:48:12;;;;;;;17.05;14.85;;;;;;;6.96;100.00;98847.84;4987106;28;20054;-73
2023/10/20 00:50:43;;;;;;;15.63;14.02;;;;;;;6.95;100.00;98840.97;5003774;28;20099;-73
2023/10/20 00:53:11;;;;;;;17.27;15.27;;;;;;;6.96;100.00;98841.78;5002777;28;20061;-73
2023/10/20 00:55:39;;;;;;;16.20;14.20;;;;;;;6.97;100.00;98825.16;5003006;28;20508;-71
2023/10/20 00:58:07;;;;;;;18.15;15.15;;;;;;;6.97;100.00;98815.50;4989058;28;20038;-70
2023/10/20 01:00:34;;;;;;;16.67;14.45;;;;;;;6.98;100.00;98814.59;5017513;28;20057;-68
2023/10/20 01:03:01;;;;;;;16.25;14.55;;;;;;;6.97;100.00;98807.66;5004059;28;20088;-69
2023/10/20 01:05:29;;;;;;;19.08;16.10;;;;;;;6.98;100.00;98809.34;5016690;28;20054;-72
2023/10/20 01:07:56;;;;;;;16.20;14.43;;;;;;;6.97;100.00;98818.13;5003881;28;20113;-71
2023/10/20 01:10:24;;;;;;;16.45;14.68;;;;;;;6.96;100.00;98811.22;4986073;28;20060;-71
2023/10/20 01:12:51;;;;;;;16.60;14.77;;;;;;;6.94;100.00;98814.94;4999313;28;20116;-70
2023/10/20 01:15:19;;;;;;;16.90;14.18;;;;;;;6.95;100.00;98812.19;4992968;28;20089;-71
2023/10/20 01:17:46;;;;;;;17.85;15.65;;;;;;;6.98;100.00;98824.19;4988037;28;20084;-71
2023/10/20 01:20:13;;;;;;;17.60;15.70;;;;;;;6.97;100.00;98833.81;5008180;28;20076;-70
2023/10/20 01:22:41;;;;;;;15.70;13.45;;;;;;;6.96;100.00;98837.41;4988290;28;20516;-70
2023/10/20 01:25:09;;;;;;;16.23;14.52;;;;;;;6.99;100.00;98839.78;5007790;28;20145;-71
2023/10/20 01:27:37;;;;;;;16.08;13.30;;;;;;;7.01;100.00;98822.19;5004261;28;20050;-70
2023/10/20 01:30:05;;;;;;;15.10;13.60;;;;;;;7.01;100.00;98808.28;4987722;28;20470;-70
2023/10/20 01:32:32;;;;;;;14.77;13.23;;;;;;;7.00;100.00;98806.63;4988853;28;20136;-71
2023/10/20 01:35:00;;;;;;;13.80;12.40;;;;;;;6.98;100.00;98809.34;5020957;28;20141;-70
2023/10/20 01:37:27;;;;;;;16.15;14.00;;;;;;;6.98;100.00;98813.72;4988902;28;20080;-71
2023/10/20 01:39:55;;;;;;;14.40;12.95;;;;;;;6.98;100.00;98825.06;4989266;28;20053;-72
2023/10/20 01:42:22;;;;;;;14.77;12.73;;;;;;;7.01;100.00;98811.72;5007180;28;20069;-71
2023/10/20 01:44:49;;;;;;;14.15;12.73;;;;;;;7.01;100.00;98793.41;5004915;28;20108;-72
2023/10/20 01:47:16;;;;;;;13.27;11.88;;;;;;;7.02;100.00;98809.94;5005110;28;20108;-72
2023/10/20 01:49:44;;;;;;;13.63;12.05;;;;;;;7.02;100.00;98794.25;5003778;28;20101;-73
2023/10/20 01:52:11;;;;;;;11.98;10.77;;;;;;;6.99;100.00;98797.09;5005389;28;20050;-71
2023/10/20 01:54:39;;;;;;;11.75;10.52;;;;;;;6.98;100.00;98787.56;5008659;28;20513;-73
2023/10/20 01:57:06;;;;;;;12.10;10.90;;;;;;;6.99;100.00;98792.72;5006299;28;20073;-72
2023/10/20 01:59:34;;;;;;;11.85;10.63;;;;;;;7.00;100.00;98781.28;5007222;28;20050;-73
2023/10/20 02:02:01;;;;;;;11.07;9.82;;;;;;;7.00;100.00;98781.28;5005441;28;20054;-71
2023/10/20 02:04:29;;;;;;;12.27;10.95;;;;;;;7.03;100.00;98786.31;5002459;28;20540;-72
2023/10/20 02:06:56;;;;;;;11.23;10.13;;;;;;;7.02;100.00;98786.41;5006384;28;20165;-71
2023/10/20 02:09:25;;;;;;;10.40;9.35;;;;;;;7.06;100.00;98786.06;5007690;28;20046;-72
2023/10/20 02:11:56;;;;;;;10.48;9.23;;;;;;;7.08;100.00;98786.78;5006125;28;20057;-74
2023/10/20 02:14:24;;;;;;;9.40;8.48;;;;;;;7.09;100.00;98785.84;5007901;28;20054;-74
2023/10/20 02:16:52;;;;;;;11.02;9.85;;;;;;;7.09;100.00;98785.00;5024172;28;21094;-75
2023/10/20 02:19:21;;;;;;;10.80;9.77;;;;;;;7.02;100.00;98782.00;4979484;28;20050;-72
2023/10/20 02:21:51;;;;;;;11.15;9.95;;;;;;;7.02;100.00;98783.78;5009835;28;20157;-75
2023/10/20 02:24:22;;;;;;;10.57;9.48;;;;;;;7.03;100.00;98785.47;5009723;28;20157;-74
2023/10/20 02:26:52;;;;;;;10.07;9.07;;;;;;;7.02;100.00;98781.16;5003357;28;20045;-69
2023/10/20 02:29:25;;;;;;;9.95;8.95;;;;;;;6.98;100.00;98775.34;5022508;28;20453;-71
2023/10/20 02:31:54;;;;;;;9.88;7.55;;;;;;;6.96;100.00;98766.75;5003134;28;20049;-71
2023/10/20 02:34:23;;;;;;;8.70;7.80;;;;;;;6.95;100.00;98772.13;5006310;28;20060;-72
2023/10/20 02:36:51;;;;;;;8.30;7.22;;;;;;;6.96;100.00;98772.00;5006499;28;20410;-72
2023/10/20 02:39:18;;;;;;;8.25;6.55;;;;;;;6.97;100.00;98770.22;5005159;28;20142;-72
2023/10/20 02:41:45;;;;;;;11.15;7.13;;;;;;;6.96;100.00;98764.16;5018678;28;20080;-74
2023/10/20 02:44:13;;;;;;;6.32;5.72;;;;;;;6.93;100.00;98774.81;5005756;28;20057;-73
2023/10/20 02:46:41;;;;;;;6.20;5.60;;;;;;;6.95;100.00;98759.03;4986079;28;20065;-74
2023/10/20 02:49:08;;;;;;;7.40;6.70;;;;;;;6.92;100.00;98751.41;4988224;28;20076;-74
2023/10/20 02:51:35;;;;;;;6.22;5.63;;;;;;;6.92;100.00;98741.78;4985907;28;20578;-73
2023/10/20 02:54:03;;;;;;;6.80;6.07;;;;;;;6.90;100.00;98740.25;5007382;28;20068;-72
2023/10/20 02:56:30;;;;;;;6.53;5.70;;;;;;;6.88;100.00;98735.09;5006290;28;20673;-74
2023/10/20 02:58:57;;;;;;;6.13;5.53;;;;;;;6.85;100.00;98741.41;4993002;28;20156;-74
2023/10/20 03:01:26;;;;;;;6.88;5.45;;;;;;;6.82;100.00;98746.03;5003130;28;20045;-73
2023/10/20 03:03:53;;;;;;;6.07;5.47;;;;;;;6.82;100.00;98740.78;4990773;28;20173;-74
2023/10/20 03:06:22;;;;;;;5.85;5.28;;;;;;;6.82;100.00;98739.00;5020330;28;20034;-74
2023/10/20 03:08:50;;;;;;;6.07;5.50;;;;;;;6.81;100.00;98747.81;5005058;28;20140;-73
2023/10/20 03:11:17;;;;;;;6.05;5.20;;;;;;;6.84;100.00;98742.38;4988899;28;20085;-73
2023/10/20 03:13:45;;;;;;;5.95;5.35;;;;;;;6.84;100.00;98739.75;4987861;28;20042;-73
2023/10/20 03:16:12;;;;;;;5.78;5.18;;;;;;;6.78;100.00;98729.72;5001004;28;20430;-71
2023/10/20 03:18:40;;;;;;;6.00;5.20;;;;;;;6.79;100.00;98730.53;5005260;28;20058;-75
2023/10/20 03:21:07;;;;;;;6.70;4.95;;;;;;;6.77;100.00;98722.81;5021036;28;20050;-73
2023/10/20 03:23:34;;;;;;;6.38;5.20;;;;;;;6.77;100.00;98728.06;4989346;28;20054;-72
2023/10/20 03:26:02;;;;;;;7.97;5.47;;;;;;;6.76;100.00;98722.94;5004661;28;20089;-73
2023/10/20 03:28:29;;;;;;;5.78;4.60;;;;;;;6.76;100.00;98729.00;5008816;28;20081;-74
2023/10/20 03:30:57;;;;;;;6.57;5.88;;;;;;;6.75;100.00;98724.69;4986909;28;20057;-73
2023/10/20 03:33:25;;;;;;;5.70;5.07;;;;;;;6.72;100.00;98718.88;5018574;28;20050;-75
2023/10/20 03:35:59;;;;;;;6.80;6.10;;;;;;;6.69;100.00;98719.94;5004979;28;20058;-74
2023/10/20 03:38:27;;;;;;;6.30;5.68;;;;;;;6.65;100.00;98713.25;4987745;28;20450;-73
2023/10/20 03:41:06;;;;;;;5.50;5.00;;;;;;;6.66;100.00;98707.06;5018958;28;20053;-73
2023/10/20 03:43:35;;;;;;;7.38;5.95;;;;;;;6.63;100.00;98696.88;5000766;28;20128;-72
2023/10/20 03:46:04;;;;;;;6.88;5.72;;;;;;;6.72;100.00;98704.03;5016282;28;20107;-74
2023/10/20 03:48:33;;;;;;;6.70;5.78;;;;;;;6.75;100.00;98703.78;5005509;28;20053;-74
2023/10/20 03:51:04;;;;;;;7.00;6.03;;;;;;;6.70;100.00;98705.06;5005752;28;20104;-72
2023/10/20 03:53:41;;;;;;;6.10;5.45;;;;;;;6.67;100.00;98708.75;5003456;28;20054;-72
2023/10/20 03:56:09;;;;;;;7.25;5.68;;;;;;;6.68;100.00;98702.59;5005223;28;20070;-72
2023/10/20 03:58:37;;;;;;;7.68;5.43;;;;;;;6.69;100.00;98700.78;4988320;28;20107;-73
2023/10/20 04:01:06;;;;;;;9.52;6.05;;;;;;;6.65;100.00;98692.34;4999851;28;20082;-71
2023/10/20 04:03:35;;;;;;;6.43;5.78;;;;;;;6.59;100.00;98683.19;5003052;28;20100;-72
2023/10/20 04:06:06;;;;;;;7.47;5.78;;;;;;;6.60;100.00;98686.63;5002109;28;20145;-72
2023/10/20 04:08:34;;;;;;;6.80;5.82;;;;;;;6.56;100.00;98686.00;5002983;28;20085;-71
2023/10/20 04:11:01;;;;;;;7.38;6.68;;;;;;;6.54;100.00;98676.63;5001415;28;20107;-72
2023/10/20 04:13:29;;;;;;;7.35;6.05;;;;;;;6.56;100.00;98666.88;4987630;28;20140;-71
2023/10/20 04:15:56;;;;;;;7.55;6.25;;;;;;;6.50;100.00;98673.41;5001943;28;20585;-72
2023/10/20 04:18:24;;;;;;;8.02;6.80;;;;;;;6.50;100.00;98668.16;4986222;28;20132;-71
2023/10/20 04:20:57;;;;;;;8.65;7.10;;;;;;;6.55;100.00;98665.22;4986950;28;20042;-72
2023/10/20 04:23:26;;;;;;;7.88;6.15;;;;;;;6.55;100.00;98666.03;5005390;28;20085;-71
2023/10/20 04:25:53;;;;;;;7.18;6.18;;;;;;;6.55;100.00;98657.38;5000716;28;20134;-71
2023/10/20 04:28:43;;;;;;;7.70;6.50;;;;;;;6.55;100.00;98659.97;4987500;28;20049;-72
2023/10/20 04:43:05;;;;;;;;;;;;;;;6.49;100.00;98637.75;5005898;28;20069;-71
2023/10/20 04:53:54;;;;;;;10.07;7.05;;;;;;;6.44;100.00;98637.25;5008094;28;20073;-71
2023/10/20 04:57:03;;;;;;;7.47;6.20;;;;;;;6.40;100.00;98659.34;5008069;28;20132;-70
2023/10/20 04:59:22;;;;;;;9.52;6.60;;;;;;;6.41;100.00;98655.78;5009290;28;20046;-71
2023/10/20 05:01:56;;;;;;;8.00;5.93;;;;;;;6.42;100.00;98654.00;4989980;28;20054;-70
2023/10/20 05:04:28;;;;;;;8.40;6.70;;;;;;;6.33;100.00;98666.78;5005314;28;20033;-72
2023/10/20 05:07:05;;;;;;;9.85;6.47;;;;;;;6.32;100.00;98648.59;5003010;28;20611;-72
2023/10/20 05:09:54;;;;;;;10.10;7.03;;;;;;;6.32;100.00;98653.84;5017944;28;20046;-72
2023/10/20 05:12:22;;;;;;;7.80;6.72;;;;;;;6.33;100.00;98656.31;5005927;28;20578;-72
2023/10/20 05:14:49;;;;;;;8.82;6.78;;;;;;;6.32;100.00;98652.03;5006875;28;20592;-72
2023/10/20 05:17:19;;;;;;;8.73;6.80;;;;;;;6.31;100.00;98642.53;5020794;28;20053;-70
2023/10/20 05:19:49;;;;;;;8.50;6.57;;;;;;;6.32;100.00;98644.22;4992514;28;20073;-71
2023/10/20 05:22:16;;;;;;;9.77;7.75;;;;;;;6.31;100.00;98646.94;5005691;28;20509;-71
2023/10/20 05:24:43;;;;;;;8.63;7.10;;;;;;;6.30;100.00;98661.78;5002414;28;20066;-73
2023/10/20 05:27:12;;;;;;;9.88;7.85;;;;;;;6.30;100.00;98653.09;4987422;28;20152;-72
2023/10/20 05:29:39;;;;;;;10.18;7.97;;;;;;;6.27;100.00;98656.78;5014986;28;20058;-72
2023/10/20 05:32:07;;;;;;;9.25;7.68;;;;;;;6.29;100.00;98664.50;5003998;28;20103;-71
2023/10/20 05:34:35;;;;;;;14.43;7.97;;;;;;;6.27;100.00;98664.63;4983709;28;20104;-72
2023/10/20 05:37:03;;;;;;;9.40;8.38;;;;;;;6.29;100.00;98661.88;5006291;28;20073;-72
2023/10/20 05:39:31;;;;;;;11.57;8.07;;;;;;;6.29;100.00;98664.50;4984475;28;20046;-71
2023/10/20 05:42:01;;;;;;;11.23;8.23;;;;;;;6.30;100.00;98667.03;5019316;28;20131;-72
2023/10/20 05:44:32;;;;;;;17.20;10.15;;;;;;;6.26;100.00;98662.97;4985602;28;20497;-71
2023/10/20 05:47:00;;;;;;;12.93;8.25;;;;;;;6.23;100.00;98665.78;4973647;28;20117;-73
2023/10/20 05:49:27;;;;;;;10.88;8.98;;;;;;;6.25;100.00;98652.59;4995836;28;20077;-72
2023/10/20 05:51:55;;;;;;;11.88;8.98;;;;;;;6.24;100.00;98650.94;5006968;28;20119;-72
2023/10/20 05:54:24;;;;;;;10.98;8.32;;;;;;;6.23;100.00;98642.25;4988105;28;20488;-73
2023/10/20 05:56:52;;;;;;;12.27;9.13;;;;;;;6.21;100.00;98631.06;4988978;28;20138;-72
2023/10/20 05:59:19;;;;;;;10.98;8.77;;;;;;;6.17;100.00;98631.41;5007026;28;20108;-71
2023/10/20 06:01:47;;;;;;;10.77;9.32;;;;;;;6.17;100.00;98634.88;5002262;28;20065;-72
2023/10/20 06:04:15;;;;;;;10.70;8.35;;;;;;;6.15;100.00;98636.75;5005428;28;20390;-74
2023/10/20 06:06:42;;;;;;;12.32;9.23;;;;;;;6.13;100.00;98630.81;5005954;28;20132;-72
2023/10/20 06:09:10;;;;;;;11.43;9.20;;;;;;;6.11;100.00;98632.69;4972482;28;20420;-72
2023/10/20 06:11:38;;;;;;;10.27;9.13;;;;;;;6.08;100.00;98625.09;5004598;28;20050;-74
2023/10/20 06:14:07;;;;;;;9.80;8.75;;;;;;;6.08;100.00;98625.09;5007025;28;20429;-73
2023/10/20 06:16:35;;;;;;;9.82;8.38;;;;;;;6.07;100.00;98619.00;5003874;28;20069;-72
2023/10/20 06:19:02;;;;;;;9.50;8.20;;;;;;;6.05;100.00;98610.47;5005134;28;20096;-72
2023/10/20 06:21:30;;;;;;;14.25;10.27;;;;;;;6.01;100.00;98603.81;4989931;28;20638;-72
2023/10/20 06:23:58;;;;;;;11.00;9.35;;;;;;;6.03;100.00;98609.75;5021356;28;20053;-70
2023/10/20 06:26:25;;;;;;;13.35;9.90;;;;;;;6.04;100.00;98628.88;5014913;28;20140;-73
2023/10/20 06:28:55;;;;;;;13.77;9.15;;;;;;;6.04;100.00;98628.88;5006991;28;20056;-74
2023/10/20 06:36:48;;;;;;;11.50;9.45;;;;;;;6.01;100.00;98629.91;5006578;28;20657;-71
2023/10/20 06:39:18;;;;;;;14.88;10.38;;;;;;;6.01;100.00;98609.03;4985393;28;20047;-72
2023/10/20 06:41:47;;;;;;;14.63;10.32;;;;;;;6.05;100.00;98615.69;4986250;28;20045;-72
2023/10/20 06:44:15;;;;;;;15.48;10.43;;;;;;;6.06;100.00;98593.84;4986428;28;20098;-73
2023/10/20 06:46:42;;;;;;;12.23;9.27;;;;;;;6.03;100.00;98601.94;4987890;28;20511;-73
2023/10/20 06:49:10;;;;;;;14.23;9.02;;;;;;;6.06;100.00;98596.47;4987615;28;20049;-73
2023/10/20 06:51:38;;;;;;;12.10;10.18;;;;;;;6.01;100.00;98587.31;5003876;28;20078;-74
2023/10/20 06:54:05;;;;;;;12.23;9.05;;;;;;;6.00;100.00;98588.25;5006255;28;21004;-73
2023/10/20 06:56:32;;;;;;;14.38;10.45;;;;;;;6.01;100.00;98576.84;4986694;28;20133;-72
2023/10/20 06:59:00;;;;;;;11.85;9.57;;;;;;;6.01;100.00;98577.69;5003235;28;20074;-72
2023/10/20 07:01:28;;;;;;;10.77;9.15;;;;;;;5.97;100.00;98573.63;4986921;28;20062;-73
2023/10/20 07:03:56;;;;;;;13.13;8.68;;;;;;;5.98;100.00;98575.28;5004788;28;20058;-73
2023/10/20 07:06:23;;;;;;;13.90;9.00;;;;;;;5.94;100.00;98573.00;4987817;28;20042;-73
2023/10/20 07:08:51;;;;;;;15.55;9.70;;;;;;;5.91;100.00;98571.44;5020432;28;20066;-74
2023/10/20 07:11:18;;;;;;;12.02;9.75;;;;;;;5.89;100.00;98572.47;5002588;28;20085;-74
2023/10/20 07:13:45;;;;;;;13.30;10.25;;;;;;;5.85;100.00;98566.63;5003871;28;20081;-73
2023/10/20 07:16:13;;;;;;;11.85;9.15;;;;;;;5.87;100.00;98561.31;4984630;28;20052;-73
2023/10/20 07:18:40;;;;;;;12.88;9.95;;;;;;;5.84;100.00;98557.16;4987725;28;20073;-73
2023/10/20 07:21:08;;;;;;;11.10;9.18;;;;;;;5.85;100.00;98548.34;5003759;28;20053;-73
2023/10/20 07:23:35;;;;;;;12.60;9.40;;;;;;;5.87;100.00;98556.09;5018174;28;20073;-72
2023/10/20 07:26:03;;;;;;;12.23;9.73;;;;;;;5.90;100.00;98540.19;5003214;28;20092;-72
2023/10/20 07:28:30;;;;;;;11.30;9.40;;;;;;;5.91;100.00;98534.88;5004528;28;20062;-73
2023/10/20 07:30:57;;;;;;;11.75;8.75;;;;;;;5.89;100.00;98526.31;5001348;28;20053;-72
2023/10/20 07:33:25;;;;;;;10.13;8.38;;;;;;;5.86;100.00;98544.81;4986259;28;20414;-73
2023/10/20 07:35:52;;;;;;;11.90;8.10;;;;;;;5.88;100.00;98555.16;5003578;28;20058;-73
2023/10/20 07:38:20;;;;;;;10.73;8.77;;;;;;;5.80;100.00;98551.31;5003109;28;20058;-73
2023/10/20 07:40:47;;;;;;;13.85;8.45;;;;;;;5.79;100.00;98567.91;4987549;28;20442;-73
2023/10/20 07:43:15;;;;;;;14.55;9.43;;;;;;;5.77;100.00;98555.94;4986278;28;20137;-72
2023/10/20 07:45:43;;;;;;;13.65;9.57;;;;;;;5.78;100.00;98534.09;4981557;28;20116;-74
2023/10/20 07:48:11;;;;;;;13.85;9.15;;;;;;;5.76;100.00;98535.97;4996953;28;20061;-73
2023/10/20 07:50:38;;;;;;;11.02;9.02;;;;;;;5.73;100.00;98528.38;4988067;28;20088;-73
2023/10/20 07:53:08;;;;;;;10.98;8.93;;;;;;;5.73;100.00;98510.94;4996348;28;20048;-73
2023/10/20 07:55:36;;;;;;;9.68;7.95;;;;;;;5.70;100.00;98520.75;4998869;28;20512;-73
2023/10/20 07:58:04;;;;;;;11.27;8.95;;;;;;;5.70;100.00;98532.03;4984440;28;20049;-73
2023/10/20 08:00:31;;;;;;;11.20;9.25;;;;;;;5.74;100.00;98524.81;5002987;28;20148;-74
2023/10/20 08:02:59;;;;;;;10.90;8.82;;;;;;;5.72;100.00;98518.88;5001263;28;20509;-74
2023/10/20 08:05:27;;;;;;;11.23;9.15;;;;;;;5.77;100.00;98498.50;4985651;28;20053;-73
2023/10/20 08:07:58;;;;;;;9.77;8.55;;;;;;;5.80;100.00;98485.19;5006648;28;20062;-72
2023/10/20 08:10:25;;;;;;;9.27;8.15;;;;;;;5.77;100.00;98498.50;4995241;28;20103;-74
2023/10/20 08:12:54;;;;;;;8.98;7.25;;;;;;;5.77;100.00;98490.66;4987405;28;20069;-73
2023/10/20 08:15:22;;;;;;;12.55;8.32;;;;;;;5.79;100.00;98476.53;5009078;28;20054;-70
2023/10/20 08:17:53;;;;;;;8.68;7.43;;;;;;;5.83;100.00;98477.16;4998854;28;20111;-71
2023/10/20 08:20:21;;;;;;;8.63;7.45;;;;;;;5.83;100.00;98479.75;4999833;28;20053;-71
2023/10/20 08:22:49;;;;;;;8.63;6.95;;;;;;;5.84;100.00;98481.41;5001524;28;20468;-71
2023/10/20 08:25:16;;;;;;;10.38;7.45;;;;;;;5.76;100.00;98489.84;4996909;28;20049;-71
2023/10/20 08:27:50;;;;;;;9.63;7.65;;;;;;;5.78;100.00;98492.31;4996981;28;20115;-71
2023/10/20 08:30:21;;;;;;;9.13;7.45;;;;;;;5.80;100.00;98488.63;4997931;28;20060;-71
2023/10/20 08:32:49;;;;;;;11.32;8.25;;;;;;;5.81;100.00;98486.88;4998428;28;20546;-73
2023/10/20 08:35:17;;;;;;;9.30;7.82;;;;;;;5.81;100.00;98485.09;5000718;28;20419;-70
2023/10/20 08:37:45;;;;;;;8.50;7.18;;;;;;;5.87;100.00;98506.50;5000398;28;20042;-70
2023/10/20 08:40:12;;;;;;;9.70;6.82;;;;;;;5.89;100.00;98515.84;4968271;28;20054;-71
2023/10/20 08:42:40;;;;;;;11.18;7.22;;;;;;;5.85;100.00;98524.84;4978176;28;20073;-71
2023/10/20 08:45:12;;;;;;;8.85;6.82;;;;;;;5.90;100.00;98528.00;5001825;28;20152;-72
2023/10/20 08:47:43;;;;;;;10.15;6.75;;;;;;;5.84;100.00;98531.88;4997709;28;20108;-72
2023/10/20 08:50:13;;;;;;;9.68;6.78;;;;;;;5.81;100.00;98524.28;4983762;28;20044;-71
2023/10/20 08:52:44;;;;;;;9.20;7.80;;;;;;;5.82;100.00;98507.66;4999206;28;20112;-71
2023/10/20 08:55:13;;;;;;;8.95;8.05;;;;;;;5.84;100.00;98497.09;5001994;28;20096;-71
2023/10/20 08:57:41;;;;;;;9.38;7.45;;;;;;;5.90;100.00;98487.97;4983771;28;20049;-71
2023/10/20 09:00:19;;;;;;;8.93;6.88;;;;;;;5.91;100.00;98481.81;4997486;28;20076;-71
2023/10/20 09:02:48;;;;;;;9.48;7.40;;;;;;;5.92;100.00;98486.13;4976047;28;20079;-71
2023/10/20 09:05:22;;;;;;;10.77;7.30;;;;;;;5.97;100.00;98492.66;4980829;28;20064;-71
2023/10/20 09:07:51;;;;;;;10.20;7.63;;;;;;;5.96;100.00;98487.56;4992694;28;20042;-70
2023/10/20 09:10:18;;;;;;;8.63;7.30;;;;;;;5.94;100.00;98489.44;4997647;28;20039;-70
2023/10/20 09:12:46;;;;;;;8.90;7.32;;;;;;;5.98;100.00;98504.75;4997751;28;20050;-71
2023/10/20 09:15:13;;;;;;;8.13;6.72;;;;;;;5.92;100.00;98507.84;4998513;28;20053;-70
2023/10/20 09:17:41;;;;;;;9.25;6.72;;;;;;;5.94;100.00;98484.22;4979710;28;20073;-70
2023/10/20 09:20:14;;;;;;;10.02;7.35;;;;;;;5.97;100.00;98489.22;4981650;28;20619;-70
2023/10/20 09:22:42;;;;;;;8.82;6.72;;;;;;;5.96;100.00;98479.72;4985142;28;20124;-71
2023/10/20 09:25:10;;;;;;;7.63;6.05;;;;;;;6.02;100.00;98474.88;5003386;28;20046;-72
2023/10/20 09:27:38;;;;;;;7.43;6.47;;;;;;;6.00;100.00;98468.94;5015861;28;20104;-71
2023/10/20 09:30:14;;;;;;;8.07;6.53;;;;;;;6.02;100.00;98471.44;4999133;28;20065;-70
2023/10/20 09:32:41;;;;;;;8.73;7.00;;;;;;;6.00;100.00;98468.94;4998624;28;20068;-70
2023/10/20 09:35:10;;;;;;;8.02;6.40;;;;;;;5.96;100.00;98466.66;4998450;28;20069;-71
2023/10/20 09:37:38;;;;;;;6.65;5.57;;;;;;;5.96;100.00;98466.66;4985648;28;20045;-71
2023/10/20 09:40:07;;;;;;;6.82;5.88;;;;;;;5.91;100.00;98464.38;4988962;28;20140;-71
2023/10/20 09:42:57;;;;;;;7.78;5.90;;;;;;;5.94;100.00;98439.81;5020256;28;20749;-70
2023/10/20 09:45:37;;;;;;;6.82;5.93;;;;;;;5.91;100.00;98440.88;5004303;28;20425;-70
2023/10/20 09:48:12;;;;;;;6.95;5.85;;;;;;;5.82;100.00;98436.34;5002678;28;20556;-72
2023/10/20 09:50:40;;;;;;;6.38;5.40;;;;;;;5.83;100.00;98427.53;5020956;28;20073;-71
2023/10/20 09:53:09;;;;;;;7.63;5.53;;;;;;;5.79;100.00;98447.00;4987779;28;20046;-71
2023/10/20 09:55:36;;;;;;;7.93;5.78;;;;;;;5.81;100.00;98437.28;4987927;28;20080;-72
2023/10/20 09:58:04;;;;;;;8.40;6.00;;;;;;;5.80;100.00;98432.97;4984419;28;20045;-72
2023/10/20 10:00:32;;;;;;;6.80;5.70;;;;;;;5.82;100.00;98418.88;4987048;28;20092;-71
2023/10/20 10:03:00;;;;;;;8.38;6.25;;;;;;;5.82;100.00;98418.06;4998328;28;20050;-71
2023/10/20 10:05:29;;;;;;;6.82;5.95;;;;;;;5.82;100.00;98416.28;4989104;28;20052;-71
2023/10/20 10:08:08;;;;;;;6.00;5.03;;;;;;;5.86;100.00;98424.72;5023081;28;20044;-71
2023/10/20 10:10:36;;;;;;;5.25;4.68;;;;;;;5.88;100.00;98419.38;5022140;28;20050;-71
2023/10/20 10:13:07;;;;;;;7.57;5.50;;;;;;;5.89;100.00;98421.03;5004137;28;20046;-71
2023/10/20 10:15:43;;;;;;;6.68;5.18;;;;;;;5.89;100.00;98416.63;5020178;28;20077;-72
2023/10/20 10:18:12;;;;;;;6.35;5.18;;;;;;;5.88;100.00;98414.97;4988204;28;20046;-70
2023/10/20 10:20:46;;;;;;;6.90;5.20;;;;;;;5.87;100.00;98412.47;4990434;28;20185;-71
2023/10/20 10:23:15;;;;;;;6.13;4.50;;;;;;;5.88;100.00;98401.91;4989118;28;20508;-71
2023/10/20 10:25:47;;;;;;;6.13;5.05;;;;;;;5.95;100.00;98407.56;5021802;28;20590;-71
2023/10/20 10:28:17;;;;;;;6.57;5.15;;;;;;;5.91;100.00;98401.69;5002703;28;20484;-71
2023/10/20 10:30:45;;;;;;;7.25;4.65;;;;;;;5.91;100.00;98399.09;4989180;28;20113;-71
2023/10/20 10:33:13;;;;;;;7.30;4.97;;;;;;;5.93;100.00;98406.81;5005168;28;20058;-72
2023/10/20 10:35:40;;;;;;;8.98;5.07;;;;;;;5.95;100.00;98415.38;5021661;28;20100;-71
2023/10/20 10:38:22;;;;;;;5.68;5.07;;;;;;;5.87;100.00;98413.31;4990047;28;20398;-71
2023/10/20 10:40:51;;;;;;;5.07;4.25;;;;;;;5.93;100.00;98412.88;5006378;28;20042;-72
2023/10/20 10:43:19;;;;;;;5.78;4.57;;;;;;;5.92;100.00;98411.22;4988418;28;20122;-71
2023/10/20 10:45:52;;;;;;;6.28;5.45;;;;;;;5.89;100.00;98408.78;5003802;28;20050;-72
2023/10/20 10:48:29;;;;;;;6.57;4.60;;;;;;;5.92;100.00;98413.00;5019567;28;20107;-72
2023/10/20 10:50:56;;;;;;;;;;;;;;;5.93;100.00;98419.88;5005215;28;20456;-71
2023/10/20 10:53:25;;;;;;;;;;;;;;;5.88;100.00;98409.75;5018189;28;19977;-72
2023/10/20 10:55:52;;;;;;;;;;;;;;;5.82;100.00;98402.38;5000163;28;20514;-70
2023/10/20 10:58:23;;;;;;;;;;;;;;;5.78;100.00;98403.56;4997144;28;19979;-70
2023/10/20 11:00:50;;;;;;;;;;;;;;;5.80;100.00;98396.44;4996537;28;19925;-71
2023/10/20 11:03:19;;;;;;;;;;;;;;;5.81;100.00;98390.28;4999254;28;20338;-70
2023/10/20 11:05:50;;;;;;;;;;;;;;;5.82;100.00;98397.16;5002815;28;19941;-70
2023/10/20 11:08:20;;;;;;;;;;;;;;;5.75;100.00;98406.38;5002655;28;19929;-72
2023/10/20 11:10:49;;;;;;;;;;;;;;;5.79;100.00;98411.25;5002077;28;19964;-71
2023/10/20 11:13:17;;;;;;;;;;;;;;;5.81;100.00;98411.19;4985569;28;19972;-70
2023/10/20 11:15:48;;;;;;;;;;;;;;;5.84;100.00;98406.53;5001384;28;19933;-70
2023/10/20 11:18:16;;;;;;;;;;;;;;;5.80;100.00;98409.47;4984548;28;20553;-70
2023/10/20 11:20:46;;;;;;;;;;;;;;;5.86;100.00;98414.28;4985904;28;21097;-70
2023/10/20 11:23:14;;;;;;;;;;;;;;;5.89;100.00;98411.41;5007440;28;20455;-70
2023/10/20 11:25:42;;;;;;;;;;;;;;;5.91;100.00;98408.69;5002247;28;19972;-69
2023/10/20 11:28:10;;;;;;;;;;;;;;;5.88;100.00;98412.34;4995903;28;20007;-71
2023/10/20 11:30:38;;;;;;;;;;;;;;;5.88;100.00;98407.13;5000612;28;20012;-70
2023/10/20 11:33:06;;;;;;;;;;;;;;;5.90;100.00;98400.03;5000084;28;20539;-73
2023/10/20 11:35:33;;;;;;;;;;;;;;;5.90;100.00;98410.47;4984714;28;19929;-70
2023/10/20 11:38:00;;;;;;;;;;;;;;;5.92;100.00;98408.59;5002580;28;20380;-70
2023/10/20 11:40:28;;;;;;;;;;;;;;;5.95;100.00;98411.00;5003968;28;20335;-70
2023/10/20 11:42:55;;;;;;;;;;;;;;;6.02;100.00;98400.91;4998241;28;19925;-71
2023/10/20 11:45:22;;;;;;;;;;;;;;;6.11;100.00;98415.06;5001213;28;19965;-70
2023/10/20 11:47:51;;;;;;;;;;;;;;;6.18;100.00;98409.25;4966975;28;19929;-71
2023/10/20 11:50:19;;;;;;;;;;;;;;;6.19;100.00;98413.53;5000125;28;20373;-71
2023/10/20 11:52:47;;;;;;;;;;;;;;;6.24;100.00;98410.56;5014809;28;19980;-71
2023/10/20 11:55:14;;;;;;;;;;;;;;;6.24;100.00;98415.78;5019060;28;20016;-70
2023/10/20 11:57:42;;;;;;;;;;;;;;;6.15;100.00;98412.09;5017859;28;19960;-70
2023/10/20 12:00:10;;;;;;;;;;;;;;;6.12;100.00;98421.94;4994258;28;19937;-72
2023/10/20 12:02:40;;;;;;;;;;;;;;;6.08;100.00;98421.34;4991717;28;19917;-70
2023/10/20 12:05:08;;;;;;;;;;;;;;;6.06;100.00;98423.25;5001013;28;19926;-70
2023/10/20 12:07:36;;;;;;;;;;;;;;;6.04;100.00;98412.09;4964635;28;19929;-70
2023/10/20 12:10:06;;;;;;;;;;;;;;;6.09;100.00;98409.94;4981110;28;19957;-71